Time;durP1;ratioP1;P1;durP2;ratioP2;P2;SDS_P1;SDS_P2;PMS_P1;PMS_P2;Temp;Humidity;BMP_temperature;BMP_pressure;BME280_temperature;BME280_humidity;BME280_pressure;Samples;Min_cycle;Max_cycle;Signal;HPM_P1;HPM_P2
2022/12/09 00:01:11;;;;;;;;;32.00;27.00;;;;;7.26;64.03;100281.59;5003003;28;47358;-74
2022/12/09 00:03:37;;;;;;;;;43.50;30.00;;;;;7.24;63.78;100288.72;4997976;28;45964;-74
2022/12/09 00:06:23;;;;;;;;;38.75;34.00;;;;;7.21;63.97;100281.69;5002043;28;45445;-74
2022/12/09 00:08:49;;;;;;;;;47.50;35.50;;;;;7.20;64.05;100279.06;4998702;28;45559;-74
2022/12/09 00:11:15;;;;;;;;;36.75;29.25;;;;;7.17;63.97;100276.53;5004557;28;45915;-74
2022/12/09 00:13:41;;;;;;;;;28.25;25.25;;;;;7.08;64.24;100263.47;5002516;28;45400;-74
2022/12/09 00:16:07;;;;;;;;;40.00;28.50;;;;;7.09;64.02;100268.75;5004428;28;45211;-74
2022/12/09 00:18:34;;;;;;;;;36.25;28.25;;;;;7.09;64.36;100267.88;4997309;28;45516;-74
2022/12/09 00:21:16;;;;;;;;;29.50;25.00;;;;;7.08;64.19;100269.66;5005290;28;45431;-74
2022/12/09 00:23:41;;;;;;;;;33.25;30.25;;;;;7.10;64.11;100272.25;5007109;28;45888;-74
2022/12/09 00:26:06;;;;;;;;;28.50;27.00;;;;;7.07;64.32;100262.63;5007843;28;45549;-74
2022/12/09 00:28:32;;;;;;;;;29.75;24.00;;;;;7.07;64.63;100261.72;5003182;28;45450;-74
2022/12/09 00:31:01;;;;;;;;;31.50;28.00;;;;;7.06;64.26;100260.84;5002022;28;45471;-74
2022/12/09 00:33:29;;;;;;;;;27.25;22.75;;;;;7.05;64.67;100257.34;5011195;28;45740;-74
2022/12/09 00:35:54;;;;;;;;;26.75;21.75;;;;;7.10;64.32;100256.34;5008644;28;45428;-74
2022/12/09 00:38:19;;;;;;;;;28.25;25.00;;;;;7.10;64.37;100248.38;5008691;28;45739;-74
2022/12/09 00:40:45;;;;;;;;;27.75;22.00;;;;;7.10;64.47;100251.03;5008045;28;46306;-74
2022/12/09 00:43:10;;;;;;;;;28.75;22.00;;;;;7.11;64.48;100250.13;5005227;28;45281;-74
2022/12/09 00:45:35;;;;;;;;;27.50;25.75;;;;;7.04;64.31;100244.13;5003402;28;45315;-74
2022/12/09 00:48:00;;;;;;;;;31.50;26.00;;;;;7.03;64.38;100242.34;5008000;28;45434;-74
2022/12/09 00:50:26;;;;;;;;;34.50;26.75;;;;;7.05;64.64;100254.69;5007820;28;45512;-74
2022/12/09 00:52:51;;;;;;;;;22.25;18.75;;;;;7.04;64.55;100254.72;5010237;28;45404;-74
2022/12/09 00:55:16;;;;;;;;;23.00;19.25;;;;;6.96;64.69;100260.22;5008138;28;45418;-74
2022/12/09 00:57:42;;;;;;;;;29.75;23.75;;;;;6.94;64.66;100243.47;5000099;28;45567;-74
2022/12/09 01:00:07;;;;;;;;;28.25;24.50;;;;;6.94;65.07;100237.31;5019715;28;46197;-74
2022/12/09 01:02:34;;;;;;;;;25.50;22.25;;;;;6.97;64.49;100243.41;5004556;28;45488;-74
2022/12/09 01:05:00;;;;;;;;;24.50;23.75;;;;;6.94;64.83;100229.34;5010146;28;45530;-74
2022/12/09 01:07:25;;;;;;;;;33.25;27.75;;;;;6.88;64.84;100224.19;5005066;28;45513;-74
2022/12/09 01:09:50;;;;;;;;;28.75;24.00;;;;;6.86;64.88;100221.56;5000958;28;46026;-74
2022/12/09 01:12:16;;;;;;;;;19.75;15.75;;;;;6.86;65.00;100227.72;5006126;28;45515;-74
2022/12/09 01:14:41;;;;;;;;;30.50;24.75;;;;;6.89;64.64;100224.16;5004173;28;46150;-74
2022/12/09 01:17:06;;;;;;;;;29.00;25.75;;;;;6.90;65.08;100231.22;5005962;28;46739;-74
2022/12/09 01:19:32;;;;;;;;;30.25;29.00;;;;;6.89;65.18;100224.16;5009711;28;45392;-74
2022/12/09 01:21:58;;;;;;;;;43.00;36.75;;;;;6.85;65.40;100225.16;5017124;28;45724;-74
2022/12/09 01:24:23;;;;;;;;;31.75;29.50;;;;;6.80;65.35;100225.25;5012076;28;45452;-74
2022/12/09 01:26:49;;;;;;;;;39.25;34.00;;;;;6.81;65.66;100224.31;5007949;28;45294;-74
2022/12/09 01:29:14;;;;;;;;;32.75;29.25;;;;;6.90;65.96;100236.50;5002835;28;45357;-74
2022/12/09 01:31:39;;;;;;;;;38.25;34.50;;;;;6.86;66.20;100213.59;5008890;28;45442;-74
2022/12/09 01:34:05;;;;;;;;;37.50;32.75;;;;;6.99;65.92;100235.41;5008084;28;45418;-74
2022/12/09 01:36:30;;;;;;;;;27.75;26.25;;;;;7.00;65.58;100231.81;5007626;28;45309;-74
2022/12/09 01:38:58;;;;;;;;;42.25;34.75;;;;;7.02;65.66;100227.38;5004857;28;46413;-74
2022/12/09 01:41:24;;;;;;;;;41.00;33.25;;;;;7.06;65.54;100229.00;5003349;28;45469;-74
2022/12/09 01:44:20;;;;;;;;;34.75;30.75;;;;;7.11;65.99;100227.09;5003594;28;45420;-74
2022/12/09 01:46:46;;;;;;;;;42.00;35.75;;;;;7.13;66.03;100224.41;5001574;28;45740;-74
2022/12/09 01:49:18;;;;;;;;;45.50;35.25;;;;;7.14;65.50;100227.03;4989676;28;46121;-74
2022/12/09 01:51:48;;;;;;;;;40.25;38.00;;;;;7.12;65.81;100231.53;5002968;28;45837;-74
2022/12/09 01:54:14;;;;;;;;;37.50;30.75;;;;;7.16;65.76;100232.31;5013146;28;45395;-74
2022/12/09 01:56:40;;;;;;;;;36.50;34.50;;;;;7.18;65.94;100230.47;5009689;28;45427;-74
2022/12/09 01:59:09;;;;;;;;;37.75;34.50;;;;;7.15;66.21;100219.94;5016916;28;45368;-74
2022/12/09 02:01:35;;;;;;;;;41.75;35.75;;;;;7.16;65.92;100232.31;5001569;28;45416;-74
2022/12/09 02:04:01;;;;;;;;;35.50;28.50;;;;;7.17;65.65;100226.97;5008835;28;45462;-74
2022/12/09 02:06:26;;;;;;;;;55.50;41.75;;;;;7.13;65.60;100221.75;4999405;28;45349;-74
2022/12/09 02:08:53;;;;;;;;;40.00;33.75;;;;;7.13;65.74;100216.44;5000051;28;46403;-74
2022/12/09 02:11:24;;;;;;;;;34.75;32.25;;;;;7.19;66.19;100225.13;5006482;28;45452;-74
2022/12/09 02:14:09;;;;;;;;;40.25;36.25;;;;;7.26;65.94;100233.78;5004944;28;45636;-74
2022/12/09 02:16:45;;;;;;;;;46.75;38.75;;;;;7.21;65.52;100225.94;4999967;28;45500;-74
2022/12/09 02:19:36;;;;;;;;;48.25;41.00;;;;;7.21;65.76;100227.75;5012928;28;45391;-74
2022/12/09 02:22:02;;;;;;;;;37.75;35.50;;;;;7.20;65.89;100212.72;5004904;28;45876;-74
2022/12/09 02:24:39;;;;;;;;;40.50;34.00;;;;;7.20;65.59;100216.25;5006309;28;45574;-74
2022/12/09 02:27:26;;;;;;;;;39.25;35.75;;;;;7.24;65.79;100207.28;5008796;28;45432;-74
2022/12/09 02:30:14;;;;;;;;;44.50;34.75;;;;;7.23;65.75;100204.66;5006932;28;45465;-74
2022/12/09 02:32:39;;;;;;;;;40.25;34.00;;;;;7.25;65.74;100208.19;5006459;28;45796;-74
2022/12/09 02:35:26;;;;;;;;;49.67;36.00;;;;;7.21;66.04;100196.75;5008008;28;45412;-74
2022/12/09 02:38:29;;;;;;;;;38.75;34.50;;;;;7.23;65.80;100204.66;5004174;28;45479;-74
2022/12/09 02:41:01;;;;;;;;;49.25;39.25;;;;;7.21;65.59;100210.03;5001801;28;45606;-74
2022/12/09 02:43:30;;;;;;;;;39.00;27.50;;;;;7.11;65.74;100197.91;5013621;28;45847;-74
2022/12/09 02:45:58;;;;;;;;;43.25;35.00;;;;;7.03;66.42;100191.94;5006971;28;45408;-74
2022/12/09 02:48:31;;;;;;;;;48.75;38.75;;;;;6.97;65.89;100197.44;5002785;28;45554;-74
2022/12/09 02:50:58;;;;;;;;;36.25;35.50;;;;;6.84;66.46;100189.78;5010460;28;47433;-74
2022/12/09 02:53:25;;;;;;;;;48.00;38.25;;;;;6.84;66.68;100192.41;5002747;28;45684;-75
2022/12/09 02:55:53;;;;;;;;;41.75;35.00;;;;;6.89;66.40;100199.41;5002206;28;46261;-74
2022/12/09 02:58:18;;;;;;;;;41.75;34.00;;;;;6.82;66.31;100188.09;5004597;28;45474;-74
2022/12/09 03:00:44;;;;;;;;;44.50;33.50;;;;;6.79;66.40;100189.00;5003811;28;45540;-74
2022/12/09 03:03:14;;;;;;;;;43.00;34.75;;;;;6.79;66.54;100204.06;5002069;28;45598;-74
2022/12/09 03:05:55;;;;;;;;;45.50;35.25;;;;;6.73;66.37;100206.88;5004802;28;45508;-74
2022/12/09 03:08:33;;;;;;;;;45.25;38.25;;;;;6.79;66.65;100212.91;5003230;28;45515;-74
2022/12/09 03:11:06;;;;;;;;;38.00;35.00;;;;;6.84;66.42;100210.13;5002068;28;45448;-74
2022/12/09 03:13:44;;;;;;;;;45.00;35.25;;;;;6.80;66.67;100203.13;5010135;28;46199;-74
2022/12/09 03:16:12;;;;;;;;;38.75;32.75;;;;;6.77;66.30;100201.47;5011176;28;45278;-74
2022/12/09 03:18:42;;;;;;;;;37.25;32.00;;;;;6.74;66.25;100192.72;5007283;28;45408;-74
2022/12/09 03:21:08;;;;;;;;;40.00;32.25;;;;;6.73;67.04;100202.44;5011015;28;46490;-74
2022/12/09 03:23:35;;;;;;;;;40.25;35.50;;;;;6.77;66.33;100193.50;5010105;28;45506;-74
2022/12/09 03:26:02;;;;;;;;;44.00;33.75;;;;;6.79;65.90;100193.47;4999456;28;45573;-74
2022/12/09 03:28:49;;;;;;;;;38.00;32.50;;;;;6.80;66.12;100195.19;5005456;28;45735;-74
2022/12/09 03:31:19;;;;;;;;;32.25;27.75;;;;;6.86;66.05;100197.69;4999499;28;45386;-74
2022/12/09 03:33:49;;;;;;;;;38.00;30.25;;;;;6.87;65.96;100196.78;5000133;28;45638;-74
2022/12/09 03:36:16;;;;;;;;;32.75;23.75;;;;;6.86;66.40;100192.38;5002751;28;45589;-74
2022/12/09 03:38:45;;;;;;;;;38.25;31.00;;;;;6.86;65.80;100189.72;5004921;28;45517;-74
2022/12/09 03:41:22;;;;;;;;;41.25;31.25;;;;;6.87;66.24;100196.78;4999974;28;46111;-74
2022/12/09 03:43:54;;;;;;;;;41.50;29.00;;;;;6.87;65.85;100191.47;5005888;28;45692;-74
2022/12/09 03:46:21;;;;;;;;;24.75;23.00;;;;;6.86;65.76;100176.47;5004416;28;45567;-74
2022/12/09 03:48:47;;;;;;;;;23.75;20.50;;;;;6.86;65.98;100177.31;5005172;28;45536;-74
2022/12/09 03:51:25;;;;;;;;;36.50;30.25;;;;;6.83;65.92;100181.84;5000749;28;46106;-74
2022/12/09 03:54:00;;;;;;;;;37.50;24.75;;;;;6.84;65.82;100176.50;4998465;28;45528;-74
2022/12/09 03:56:36;;;;;;;;;32.00;27.50;;;;;6.88;65.81;100177.28;5000737;28;45320;-74
2022/12/09 03:59:03;;;;;;;;;36.75;29.50;;;;;6.90;65.58;100178.16;5009649;28;45439;-74
2022/12/09 04:01:31;;;;;;;;;33.75;27.75;;;;;6.96;66.09;100174.44;5009201;28;46616;-74
2022/12/09 04:03:56;;;;;;;;;30.25;24.50;;;;;6.94;65.44;100173.63;5002556;28;45325;-74
2022/12/09 04:06:22;;;;;;;;;39.50;32.25;;;;;6.95;65.88;100178.00;5009190;28;45405;-74
2022/12/09 04:08:48;;;;;;;;;24.75;24.75;;;;;6.93;65.14;100166.56;5002471;28;45382;-74
2022/12/09 04:11:13;;;;;;;;;37.75;34.00;;;;;6.91;65.39;100169.25;5010601;28;45470;-74
2022/12/09 04:13:39;;;;;;;;;33.25;30.75;;;;;6.89;64.98;100160.47;5004293;28;45377;-74
2022/12/09 04:16:04;;;;;;;;;36.00;32.75;;;;;6.85;64.73;100148.22;5003394;28;45333;-75
2022/12/09 04:18:30;;;;;;;;;29.25;28.25;;;;;6.85;65.00;100154.38;5011738;28;45447;-74
2022/12/09 04:20:55;;;;;;;;;28.25;25.75;;;;;6.87;64.85;100162.31;5010352;28;46133;-74
2022/12/09 04:23:20;;;;;;;;;31.25;26.00;;;;;6.90;65.65;100154.25;5008623;28;45287;-74
2022/12/09 04:25:45;;;;;;;;;23.25;17.75;;;;;6.94;65.34;100152.41;5017211;28;46825;-74
2022/12/09 04:28:11;;;;;;;;;26.50;24.50;;;;;6.89;65.41;100133.94;5002574;28;45318;-74
2022/12/09 04:30:36;;;;;;;;;30.75;28.00;;;;;6.96;64.77;100145.25;4998644;28;46138;-74
2022/12/09 04:33:01;;;;;;;;;28.75;24.50;;;;;7.01;65.07;100148.66;5005104;28;45317;-74
2022/12/09 04:35:27;;;;;;;;;31.25;28.00;;;;;7.03;64.64;100158.34;5003148;28;45266;-74
2022/12/09 04:37:52;;;;;;;;;27.75;23.50;;;;;7.05;65.18;100151.19;5007458;28;45543;-74
2022/12/09 04:40:18;;;;;;;;;30.25;27.25;;;;;7.07;64.55;100155.56;5006402;28;46197;-74
2022/12/09 04:42:44;;;;;;;;;32.50;27.50;;;;;7.09;64.70;100151.09;5008127;28;45578;-74
2022/12/09 04:45:09;;;;;;;;;33.75;29.75;;;;;7.14;64.29;100151.84;5006125;28;45323;-74
2022/12/09 04:47:35;;;;;;;;;32.50;27.50;;;;;7.14;64.39;100143.88;5006447;28;45478;-74
2022/12/09 04:50:00;;;;;;;;;29.50;23.00;;;;;7.19;64.13;100155.25;5002575;28;45492;-74
2022/12/09 04:52:25;;;;;;;;;34.50;26.50;;;;;7.17;64.46;100149.97;5007701;28;45754;-74
2022/12/09 04:54:51;;;;;;;;;31.25;28.00;;;;;7.14;64.44;100151.84;5008405;28;45400;-74
2022/12/09 04:57:17;;;;;;;;;30.25;26.00;;;;;7.07;64.07;100155.56;5002520;28;45306;-74
2022/12/09 04:59:42;;;;;;;;;27.75;26.75;;;;;6.95;64.25;100146.16;5014337;28;48116;-74
2022/12/09 05:02:08;;;;;;;;;30.25;25.00;;;;;6.85;63.81;100148.22;5003206;28;45512;-74
2022/12/09 05:04:33;;;;;;;;;29.00;22.75;;;;;6.81;64.37;100149.19;5008416;28;45388;-74
2022/12/09 05:06:58;;;;;;;;;39.50;31.25;;;;;6.80;64.25;100156.28;5006540;28;45474;-74
2022/12/09 05:09:24;;;;;;;;;26.75;23.75;;;;;6.81;64.05;100163.31;5006789;28;46494;-74
2022/12/09 05:11:50;;;;;;;;;27.25;23.00;;;;;6.81;64.58;100158.00;5010789;28;45522;-71
2022/12/09 05:14:16;;;;;;;;;34.50;32.50;;;;;6.80;64.38;100153.63;5010867;28;45515;-74
2022/12/09 05:16:42;;;;;;;;;30.00;27.50;;;;;6.81;64.53;100157.16;5000662;28;45602;-74
2022/12/09 05:19:07;;;;;;;;;24.25;19.75;;;;;6.79;63.85;100158.97;5005005;28;45239;-74
2022/12/09 05:21:33;;;;;;;;;35.00;27.75;;;;;6.68;63.97;100152.16;5008291;28;45361;-74
2022/12/09 05:24:01;;;;;;;;;20.75;17.75;;;;;6.71;64.00;100156.50;5006002;28;45408;-74
2022/12/09 05:26:26;;;;;;;;;27.00;24.25;;;;;6.71;64.59;100153.84;5009031;28;45417;-74
2022/12/09 05:28:52;;;;;;;;;29.50;24.25;;;;;6.78;64.20;100162.53;5002391;28;46888;-74
2022/12/09 05:31:19;;;;;;;;;30.50;25.75;;;;;6.73;64.08;100159.13;5006786;28;45345;-74
2022/12/09 05:33:45;;;;;;;;;31.00;23.75;;;;;6.65;63.44;100167.28;5013084;28;45370;-74
2022/12/09 05:36:12;;;;;;;;;29.50;25.25;;;;;6.56;63.62;100167.50;5003532;28;45241;-74
2022/12/09 05:38:39;;;;;;;;;19.50;17.25;;;;;6.39;63.44;100165.28;5010351;28;46437;-74
2022/12/09 05:41:04;;;;;;;;;28.25;24.50;;;;;6.28;63.14;100170.81;5001341;28;45274;-74
2022/12/09 05:43:31;;;;;;;;;25.75;24.75;;;;;6.20;63.70;100172.78;5006198;28;45420;-74
2022/12/09 05:45:57;;;;;;;;;25.00;22.50;;;;;6.17;64.21;100168.44;5008914;28;45673;-74
2022/12/09 05:48:22;;;;;;;;;19.00;16.75;;;;;6.16;64.05;100169.34;5006657;28;46526;-74
2022/12/09 05:51:07;;;;;;;;;23.50;22.50;;;;;6.11;64.23;100172.13;5013294;28;45475;-74
2022/12/09 05:53:33;;;;;;;;;21.75;15.75;;;;;6.09;64.13;100165.97;5000630;28;46827;-74
2022/12/09 05:55:58;;;;;;;;;20.25;20.25;;;;;6.09;64.32;100170.41;5006813;28;45566;-73
2022/12/09 05:58:24;;;;;;;;;27.50;26.00;;;;;6.07;63.92;100159.84;5005534;28;46376;-74
2022/12/09 06:00:49;;;;;;;;;26.50;21.75;;;;;6.15;63.86;100172.91;5006169;28;45364;-73
2022/12/09 06:03:15;;;;;;;;;30.25;27.75;;;;;6.14;64.48;100170.31;5013110;28;45326;-73
2022/12/09 06:05:41;;;;;;;;;27.25;24.75;;;;;6.04;63.68;100161.69;5005718;28;45759;-74
2022/12/09 06:08:07;;;;;;;;;31.75;22.75;;;;;6.09;64.11;100173.06;5002121;28;45627;-75
2022/12/09 06:10:32;;;;;;;;;19.75;18.00;;;;;6.01;63.39;100182.94;4998979;28;45254;-73
2022/12/09 06:12:58;;;;;;;;;20.75;19.50;;;;;5.97;63.75;100182.16;5002970;28;45483;-73
2022/12/09 06:15:24;;;;;;;;;15.50;14.00;;;;;5.91;63.87;100179.59;5001527;28;45480;-74
2022/12/09 06:17:49;;;;;;;;;19.75;18.25;;;;;5.93;63.61;100183.97;5008912;28;45460;-74
2022/12/09 06:20:16;;;;;;;;;20.75;18.75;;;;;5.98;64.24;100196.25;5011915;28;45400;-74
2022/12/09 06:22:41;;;;;;;;;25.25;18.75;;;;;5.92;63.56;100192.81;5000693;28;46241;-74
2022/12/09 06:25:07;;;;;;;;;22.00;20.50;;;;;5.85;63.89;100190.34;5003309;28;45559;-74
2022/12/09 06:27:32;;;;;;;;;23.25;17.50;;;;;5.81;62.90;100199.25;5007795;28;45714;-74
2022/12/09 06:29:58;;;;;;;;;17.75;13.00;;;;;5.71;62.90;100207.41;4999172;28;45450;-74
2022/12/09 06:32:23;;;;;;;;;22.50;19.00;;;;;5.63;63.77;100201.41;5007416;28;45368;-74
2022/12/09 06:34:48;;;;;;;;;25.75;20.25;;;;;5.57;63.51;100198.88;5003938;28;45444;-74
2022/12/09 06:37:15;;;;;;;;;24.75;22.25;;;;;5.53;62.89;100207.75;5011304;28;45405;-73
2022/12/09 06:39:40;;;;;;;;;25.75;20.25;;;;;5.49;64.02;100204.31;5010279;28;45321;-73
2022/12/09 06:42:06;;;;;;;;;23.25;18.25;;;;;5.51;64.29;100205.16;5001241;28;45392;-74
2022/12/09 06:44:31;;;;;;;;;20.25;10.75;;;;;5.53;63.86;100200.72;5006125;28;45450;-74
2022/12/09 06:46:57;;;;;;;;;19.50;15.00;;;;;5.53;63.98;100198.06;5005834;28;46142;-74
2022/12/09 06:49:22;;;;;;;;;21.75;19.00;;;;;5.51;63.74;100194.56;5011096;28;45491;-73
2022/12/09 06:51:48;;;;;;;;;15.25;13.50;;;;;5.46;62.66;100191.13;5014582;28;45221;-73
2022/12/09 06:54:13;;;;;;;;;19.25;17.25;;;;;5.37;63.15;100194.84;5000645;28;45999;-74
2022/12/09 06:56:38;;;;;;;;;18.50;14.50;;;;;5.35;62.51;100195.78;5000956;28;46646;-73
2022/12/09 06:59:05;;;;;;;;;17.75;16.50;;;;;5.27;63.51;100195.06;5000412;28;45428;-74
2022/12/09 07:01:31;;;;;;;;;20.75;18.25;;;;;5.26;62.96;100191.56;5011350;28;45524;-74
2022/12/09 07:03:56;;;;;;;;;24.75;18.75;;;;;5.24;63.47;100193.31;4998584;28;45361;-74
2022/12/09 07:06:25;;;;;;;;;17.25;14.00;;;;;5.29;64.23;100206.47;5002579;28;46898;-74
2022/12/09 07:08:51;;;;;;;;;26.25;18.00;;;;;5.28;63.74;100194.13;5008913;28;45452;-74
2022/12/09 07:11:16;;;;;;;;;22.25;20.50;;;;;5.18;63.93;100191.69;5002263;28;45506;-73
2022/12/09 07:13:41;;;;;;;;;27.25;22.75;;;;;5.22;63.51;100196.91;4998639;28;45679;-73
2022/12/09 07:16:07;;;;;;;;;26.00;20.50;;;;;5.24;63.49;100201.25;5013278;28;45462;-74
2022/12/09 07:18:32;;;;;;;;;26.50;22.50;;;;;5.24;63.96;100203.06;5002301;28;45477;-74
2022/12/09 07:21:04;;;;;;;;;21.75;19.00;;;;;5.26;63.50;100212.72;5006969;28;45326;-74
2022/12/09 07:23:29;;;;;;;;;25.50;22.00;;;;;5.30;62.75;100211.75;5000898;28;45633;-73
2022/12/09 07:25:56;;;;;;;;;25.50;23.50;;;;;5.25;63.29;100205.66;5001656;28;46710;-74
2022/12/09 07:28:21;;;;;;;;;27.00;21.75;;;;;5.34;63.36;100216.06;5006480;28;45313;-74
2022/12/09 07:30:46;;;;;;;;;26.00;23.75;;;;;5.40;64.24;100217.72;5004123;28;46256;-74
2022/12/09 07:33:11;;;;;;;;;20.50;17.25;;;;;5.32;62.66;100217.00;4998413;28;45336;-73
2022/12/09 07:35:37;;;;;;;;;24.25;19.50;;;;;5.30;63.33;100224.13;5005821;28;45423;-73
2022/12/09 07:38:02;;;;;;;;;21.75;18.00;;;;;5.36;63.00;100221.31;4998067;28;45321;-74
2022/12/09 07:40:27;;;;;;;;;22.00;18.00;;;;;5.32;62.40;100224.94;5004285;28;45301;-74
2022/12/09 07:42:53;;;;;;;;;17.25;15.00;;;;;5.27;62.48;100222.38;5009851;28;45241;-74
2022/12/09 07:45:18;;;;;;;;;19.25;17.00;;;;;5.26;63.12;100223.31;5002869;28;45973;-71
2022/12/09 07:47:43;;;;;;;;;18.00;15.50;;;;;5.26;63.15;100225.06;4997391;28;45562;-73
2022/12/09 07:50:09;;;;;;;;;22.50;18.50;;;;;5.20;62.82;100224.28;5012679;28;45443;-73
2022/12/09 07:52:34;;;;;;;;;24.00;19.75;;;;;5.21;62.79;100222.50;5010497;28;45448;-75
2022/12/09 07:55:00;;;;;;;;;28.00;22.00;;;;;5.19;62.63;100222.56;5015452;28;46924;-75
2022/12/09 07:57:26;;;;;;;;;21.50;20.25;;;;;5.17;63.05;100228.75;5009577;28;45423;-76
2022/12/09 07:59:52;;;;;;;;;20.75;18.00;;;;;5.16;62.10;100232.28;4998837;28;45396;-75
2022/12/09 08:02:17;;;;;;;;;22.00;17.50;;;;;5.14;62.68;100229.66;5015231;28;45350;-75
2022/12/09 08:04:42;;;;;;;;;20.00;17.00;;;;;5.19;63.40;100232.25;5006467;28;46057;-75
2022/12/09 08:07:08;;;;;;;;;17.25;15.25;;;;;5.25;63.13;100237.44;5002802;28;45438;-75
2022/12/09 08:09:33;;;;;;;;;17.00;16.25;;;;;5.30;62.17;100245.28;5010169;28;45411;-73
2022/12/09 08:11:58;;;;;;;;;18.50;13.50;;;;;5.33;62.55;100234.63;5011435;28;45381;-74
2022/12/09 08:14:24;;;;;;;;;21.75;16.25;;;;;5.31;62.26;100239.97;5006643;28;46458;-74
2022/12/09 08:16:49;;;;;;;;;19.75;18.75;;;;;5.33;63.33;100239.91;5003348;28;45545;-73
2022/12/09 08:19:14;;;;;;;;;19.00;17.25;;;;;5.35;62.92;100239.00;5000189;28;45543;-74
2022/12/09 08:21:40;;;;;;;;;19.75;14.50;;;;;5.38;62.46;100238.06;4990236;28;45500;-71
2022/12/09 08:24:06;;;;;;;;;21.75;19.75;;;;;5.40;62.44;100241.56;5005932;28;46356;-71
2022/12/09 08:26:33;;;;;;;;;20.25;18.50;;;;;5.44;63.17;100237.94;5011931;28;47953;-71
2022/12/09 08:28:59;;;;;;;;;22.75;19.50;;;;;5.44;62.31;100231.78;5007534;28;45520;-71
2022/12/09 08:31:25;;;;;;;;;21.50;19.75;;;;;5.43;62.38;100246.81;5004618;28;45627;-70
2022/12/09 08:33:53;;;;;;;;;18.25;15.50;;;;;5.31;61.55;100247.91;5002054;28;45409;-70
2022/12/09 08:36:22;;;;;;;;;26.50;24.75;;;;;5.23;61.66;100247.16;5007606;28;45712;-74
2022/12/09 08:38:47;;;;;;;;;30.00;25.00;;;;;5.09;62.36;100242.09;5006014;28;45686;-73
2022/12/09 08:41:33;;;;;;;;;25.50;22.25;;;;;5.15;62.36;100251.72;5011496;28;45257;-72
2022/12/09 08:44:01;;;;;;;;;25.50;21.50;;;;;5.18;63.10;100244.59;5007680;28;45552;-72
2022/12/09 08:46:26;;;;;;;;;21.75;19.25;;;;;5.16;62.66;100243.75;5005838;28;45429;-74
2022/12/09 08:48:51;;;;;;;;;23.50;21.75;;;;;5.18;62.86;100241.09;5012089;28;45329;-73
2022/12/09 08:51:17;;;;;;;;;20.50;18.25;;;;;5.15;62.50;100246.44;5010331;28;45767;-73
2022/12/09 08:53:42;;;;;;;;;22.25;18.50;;;;;5.11;62.44;100248.28;5006802;28;46202;-73
2022/12/09 08:56:12;;;;;;;;;28.00;24.00;;;;;5.18;62.56;100252.53;5010309;28;45293;-73
2022/12/09 08:58:38;;;;;;;;;29.75;22.25;;;;;5.09;61.92;100244.75;5002471;28;45270;-73
2022/12/09 09:01:04;;;;;;;;;24.75;18.75;;;;;5.07;61.96;100249.22;5013104;28;45343;-73
2022/12/09 09:03:30;;;;;;;;;22.50;19.25;;;;;5.08;63.06;100250.06;5015534;28;45975;-73
2022/12/09 09:06:00;;;;;;;;;28.25;22.75;;;;;4.99;62.31;100251.13;5001521;28;45361;-73
2022/12/09 09:08:26;;;;;;;;;21.75;21.25;;;;;4.87;62.11;100249.56;5020375;28;45413;-73
2022/12/09 09:10:53;;;;;;;;;30.75;27.50;;;;;4.85;62.42;100248.72;5009494;28;45348;-73
2022/12/09 09:13:18;;;;;;;;;26.25;20.25;;;;;4.77;62.71;100248.81;5018330;28;46145;-74
2022/12/09 09:15:44;;;;;;;;;27.00;22.00;;;;;4.77;62.81;100251.47;5007601;28;45414;-73
2022/12/09 09:18:09;;;;;;;;;27.50;23.50;;;;;4.82;63.30;100252.25;5020302;28;45244;-73
2022/12/09 09:20:34;;;;;;;;;30.00;25.00;;;;;4.83;62.73;100261.97;5018995;28;45555;-73
2022/12/09 09:23:00;;;;;;;;;32.50;26.25;;;;;4.85;62.78;100258.44;5014189;28;45370;-73
2022/12/09 09:25:25;;;;;;;;;26.00;20.75;;;;;4.92;63.06;100262.72;5000753;28;45452;-74
2022/12/09 09:27:50;;;;;;;;;26.00;22.00;;;;;4.96;63.87;100251.16;5014392;28;45640;-79
2022/12/09 09:30:16;;;;;;;;;27.25;21.00;;;;;5.07;63.50;100258.94;5002809;28;45438;-81
2022/12/09 09:32:41;;;;;;;;;27.75;25.50;;;;;5.10;63.52;100258.88;5015124;28;46049;-78
2022/12/09 09:35:06;;;;;;;;;30.75;25.25;;;;;5.11;62.81;100260.59;5010531;28;45439;-78
2022/12/09 09:37:32;;;;;;;;;25.00;23.25;;;;;5.08;63.44;100256.25;5006543;28;45398;-79
2022/12/09 09:39:57;;;;;;;;;34.75;28.25;;;;;5.02;63.38;100243.13;5006536;28;45820;-79
2022/12/09 09:42:32;;;;;;;;;34.50;26.50;;;;;5.01;62.25;100260.78;5015054;28;45502;-79
2022/12/09 09:44:57;;;;;;;;;23.00;21.75;;;;;4.98;63.19;100262.59;5003399;28;45746;-80
2022/12/09 09:47:37;;;;;;;;;35.50;27.75;;;;;5.02;63.08;100261.66;5016327;28;44943;-79
2022/12/09 09:50:24;;;;;;;;;33.00;26.00;;;;;5.03;63.83;100257.22;5015404;28;45477;-80
2022/12/09 09:52:52;;;;;;;;;35.50;29.50;;;;;4.93;62.93;100259.19;5011385;28;47167;-79
2022/12/09 09:55:31;;;;;;;;;27.75;25.50;;;;;4.94;63.21;100271.47;5013125;28;45545;-79
2022/12/09 09:58:17;;;;;;;;;29.00;27.25;;;;;4.99;63.62;100257.28;5011823;28;45454;-80
2022/12/09 10:01:04;;;;;;;;;33.50;26.75;;;;;5.01;63.26;100249.31;5010039;28;45402;-79
2022/12/09 10:03:41;;;;;;;;;32.75;24.50;;;;;5.09;63.64;100251.81;5019140;28;48092;-80
2022/12/09 10:06:32;;;;;;;;;33.25;30.25;;;;;5.16;63.81;100248.16;5018678;28;45320;-78
2022/12/09 10:09:07;;;;;;;;;35.25;31.50;;;;;5.17;63.28;100247.28;5001108;28;45313;-78
2022/12/09 10:11:54;;;;;;;;;34.75;32.00;;;;;5.19;63.82;100245.47;5014567;28;45496;-76
2022/12/09 10:14:43;;;;;;;;;33.00;27.50;;;;;5.20;64.04;100240.16;5016771;28;46071;-80
2022/12/09 10:17:18;;;;;;;;;31.25;17.50;;;;;5.27;63.02;100237.41;5007831;28;45393;-78
2022/12/09 10:19:54;;;;;;;;;40.00;35.75;;;;;5.27;63.02;100242.69;5017745;28;45548;-79
2022/12/09 10:22:23;;;;;;;;;33.75;31.50;;;;;5.29;64.07;100239.09;5014880;28;45409;-83
2022/12/09 10:24:57;;;;;;;;;36.50;30.25;;;;;5.34;63.34;100239.03;5013058;28;46531;-82
2022/12/09 10:27:34;;;;;;;;;31.00;28.50;;;;;5.41;63.07;100229.19;5020244;28;45347;-82
2022/12/09 10:30:05;;;;;;;;;33.00;27.00;;;;;5.44;63.11;100232.63;5021576;28;45404;-83
2022/12/09 10:32:33;;;;;;;;;34.75;29.50;;;;;5.43;62.34;100233.56;5012902;28;45384;-83
2022/12/09 10:34:59;;;;;;;;;29.75;27.25;;;;;5.40;63.65;100225.69;5007668;28;46344;-84
2022/12/09 10:37:24;;;;;;;;;35.75;31.50;;;;;5.39;63.56;100218.63;5017320;28;45293;-83
2022/12/09 10:39:58;;;;;;;;;39.00;29.50;;;;;5.27;63.21;100205.66;5014867;28;45300;-83
2022/12/09 10:45:10;;;;;;;;;43.50;37.75;;;;;5.32;62.78;100217.00;5004225;28;45319;-83
2022/12/09 10:47:35;;;;;;;;;35.75;33.00;;;;;5.32;63.64;100214.38;5020707;28;45378;-83
2022/12/09 10:50:03;;;;;;;;;35.75;33.75;;;;;5.34;63.65;100209.91;5008207;28;46412;-83
2022/12/09 10:52:39;;;;;;;;;42.00;34.75;;;;;5.39;63.02;100208.91;5020895;28;45405;-83
2022/12/09 10:55:05;;;;;;;;;37.00;30.50;;;;;5.46;63.41;100208.78;5015481;28;45416;-83
2022/12/09 10:57:32;;;;;;;;;43.00;35.00;;;;;5.44;62.98;100208.81;5013094;28;45676;-84
2022/12/09 11:00:17;;;;;;;;;43.50;38.50;;;;;5.48;63.11;100210.53;5010901;28;45391;-83
2022/12/09 11:02:50;;;;;;;;;34.75;34.00;;;;;5.51;64.12;100210.47;5010016;28;46834;-82
2022/12/09 11:05:28;;;;;;;;;35.75;30.25;;;;;5.57;63.48;100212.09;5011689;28;46369;-83
2022/12/09 11:07:56;;;;;;;;;43.75;33.25;;;;;5.62;63.60;100199.63;5017954;28;45709;-82
2022/12/09 11:10:27;;;;;;;;;41.50;34.75;;;;;5.67;63.30;100196.91;5015707;28;45392;-82
2022/12/09 11:13:03;;;;;;;;;41.25;36.00;;;;;5.72;63.03;100201.19;5017509;28;45528;-83
2022/12/09 11:15:36;;;;;;;;;42.25;37.75;;;;;5.70;62.64;100192.41;5019115;28;46363;-83
2022/12/09 11:18:05;;;;;;;;;43.00;40.50;;;;;5.70;62.57;100189.75;5016960;28;45726;-83
2022/12/09 11:20:32;;;;;;;;;38.75;35.00;;;;;5.72;63.64;100187.94;4995020;28;45537;-78
2022/12/09 11:23:04;;;;;;;;;38.00;32.75;;;;;5.82;63.28;100195.72;5009417;28;45527;-79
2022/12/09 11:25:33;;;;;;;;;38.75;35.50;;;;;5.81;62.82;100192.16;5001100;28;46297;-80